sensor_id;sensor_type;location;lat;lon;timestamp;P1;durP1;ratioP1;P2;durP2;ratioP2
42846;SDS011;28495;49.916;14.536;2022-08-19T00:01:06;4.38;;;2.67;;
42846;SDS011;28495;49.916;14.536;2022-08-19T00:06:27;3.30;;;2.50;;
42846;SDS011;28495;49.916;14.536;2022-08-19T00:11:50;4.07;;;2.95;;
42846;SDS011;28495;49.916;14.536;2022-08-19T00:17:12;6.15;;;2.88;;
42846;SDS011;28495;49.916;14.536;2022-08-19T00:22:32;4.18;;;3.08;;
42846;SDS011;28495;49.916;14.536;2022-08-19T00:27:54;3.92;;;3.08;;
42846;SDS011;28495;49.916;14.536;2022-08-19T00:33:14;4.40;;;3.15;;
42846;SDS011;28495;49.916;14.536;2022-08-19T00:38:37;3.58;;;2.92;;
42846;SDS011;28495;49.916;14.536;2022-08-19T00:44:06;5.43;;;3.78;;
42846;SDS011;28495;49.916;14.536;2022-08-19T00:49:31;5.90;;;3.53;;
42846;SDS011;28495;49.916;14.536;2022-08-19T00:55:16;3.30;;;3.00;;
42846;SDS011;28495;49.916;14.536;2022-08-19T01:00:39;8.15;;;3.53;;
42846;SDS011;28495;49.916;14.536;2022-08-19T01:06:00;4.22;;;3.30;;
42846;SDS011;28495;49.916;14.536;2022-08-19T01:11:21;4.90;;;3.50;;
42846;SDS011;28495;49.916;14.536;2022-08-19T01:16:42;5.18;;;3.30;;
42846;SDS011;28495;49.916;14.536;2022-08-19T01:22:06;7.22;;;3.97;;
42846;SDS011;28495;49.916;14.536;2022-08-19T01:27:40;5.97;;;3.58;;
42846;SDS011;28495;49.916;14.536;2022-08-19T01:33:13;4.75;;;3.78;;
42846;SDS011;28495;49.916;14.536;2022-08-19T01:38:35;6.55;;;3.00;;
42846;SDS011;28495;49.916;14.536;2022-08-19T01:44:04;3.95;;;3.28;;
42846;SDS011;28495;49.916;14.536;2022-08-19T01:49:38;4.32;;;3.55;;
42846;SDS011;28495;49.916;14.536;2022-08-19T01:54:59;4.13;;;3.70;;
42846;SDS011;28495;49.916;14.536;2022-08-19T02:00:20;5.68;;;3.83;;
42846;SDS011;28495;49.916;14.536;2022-08-19T02:05:43;6.03;;;3.88;;
42846;SDS011;28495;49.916;14.536;2022-08-19T02:11:05;6.38;;;3.47;;
42846;SDS011;28495;49.916;14.536;2022-08-19T02:16:26;6.55;;;3.50;;
42846;SDS011;28495;49.916;14.536;2022-08-19T02:21:47;7.38;;;4.00;;
42846;SDS011;28495;49.916;14.536;2022-08-19T02:27:08;4.30;;;3.65;;
42846;SDS011;28495;49.916;14.536;2022-08-19T02:32:29;4.95;;;3.50;;
42846;SDS011;28495;49.916;14.536;2022-08-19T02:37:50;5.00;;;3.70;;
42846;SDS011;28495;49.916;14.536;2022-08-19T02:43:33;6.47;;;4.43;;
42846;SDS011;28495;49.916;14.536;2022-08-19T02:48:59;5.60;;;3.67;;
42846;SDS011;28495;49.916;14.536;2022-08-19T02:54:23;5.47;;;3.88;;
42846;SDS011;28495;49.916;14.536;2022-08-19T02:59:43;6.68;;;4.00;;
42846;SDS011;28495;49.916;14.536;2022-08-19T03:05:04;6.28;;;4.30;;
42846;SDS011;28495;49.916;14.536;2022-08-19T03:10:25;11.20;;;5.00;;
42846;SDS011;28495;49.916;14.536;2022-08-19T03:15:47;6.05;;;4.82;;
42846;SDS011;28495;49.916;14.536;2022-08-19T03:21:08;6.75;;;5.63;;
42846;SDS011;28495;49.916;14.536;2022-08-19T03:26:32;9.98;;;5.43;;
42846;SDS011;28495;49.916;14.536;2022-08-19T03:31:53;6.68;;;4.85;;
42846;SDS011;28495;49.916;14.536;2022-08-19T03:37:15;7.43;;;5.13;;
42846;SDS011;28495;49.916;14.536;2022-08-19T03:42:36;6.10;;;5.28;;
42846;SDS011;28495;49.916;14.536;2022-08-19T03:48:08;8.40;;;5.38;;
42846;SDS011;28495;49.916;14.536;2022-08-19T03:53:30;7.18;;;5.45;;
42846;SDS011;28495;49.916;14.536;2022-08-19T03:58:52;6.32;;;5.72;;
42846;SDS011;28495;49.916;14.536;2022-08-19T04:04:13;9.32;;;6.07;;
42846;SDS011;28495;49.916;14.536;2022-08-19T04:09:35;8.23;;;6.05;;
42846;SDS011;28495;49.916;14.536;2022-08-19T04:14:59;7.10;;;5.57;;
42846;SDS011;28495;49.916;14.536;2022-08-19T04:20:19;7.00;;;6.05;;
42846;SDS011;28495;49.916;14.536;2022-08-19T04:25:41;6.93;;;6.03;;
42846;SDS011;28495;49.916;14.536;2022-08-19T04:31:03;14.55;;;6.13;;
42846;SDS011;28495;49.916;14.536;2022-08-19T04:36:28;7.00;;;5.90;;
42846;SDS011;28495;49.916;14.536;2022-08-19T04:41:51;6.20;;;5.30;;
42846;SDS011;28495;49.916;14.536;2022-08-19T04:47:30;9.70;;;6.05;;
42846;SDS011;28495;49.916;14.536;2022-08-19T04:53:12;7.47;;;6.68;;
42846;SDS011;28495;49.916;14.536;2022-08-19T04:58:33;10.10;;;6.32;;
42846;SDS011;28495;49.916;14.536;2022-08-19T05:03:55;10.50;;;6.50;;
42846;SDS011;28495;49.916;14.536;2022-08-19T05:09:17;9.00;;;6.72;;
42846;SDS011;28495;49.916;14.536;2022-08-19T05:14:37;8.65;;;6.57;;
42846;SDS011;28495;49.916;14.536;2022-08-19T05:19:58;7.25;;;6.28;;
42846;SDS011;28495;49.916;14.536;2022-08-19T05:25:39;9.75;;;6.50;;
42846;SDS011;28495;49.916;14.536;2022-08-19T05:31:00;8.48;;;5.53;;
42846;SDS011;28495;49.916;14.536;2022-08-19T05:36:21;6.35;;;4.93;;
42846;SDS011;28495;49.916;14.536;2022-08-19T05:41:42;7.55;;;6.20;;
42846;SDS011;28495;49.916;14.536;2022-08-19T05:47:04;8.27;;;6.03;;
42846;SDS011;28495;49.916;14.536;2022-08-19T05:52:27;8.57;;;6.35;;
42846;SDS011;28495;49.916;14.536;2022-08-19T05:57:49;6.70;;;5.55;;
42846;SDS011;28495;49.916;14.536;2022-08-19T06:03:10;7.82;;;6.50;;
42846;SDS011;28495;49.916;14.536;2022-08-19T06:08:32;10.23;;;7.32;;
42846;SDS011;28495;49.916;14.536;2022-08-19T06:13:55;9.43;;;6.72;;
42846;SDS011;28495;49.916;14.536;2022-08-19T06:19:20;11.27;;;7.60;;
42846;SDS011;28495;49.916;14.536;2022-08-19T06:24:44;10.82;;;7.43;;
42846;SDS011;28495;49.916;14.536;2022-08-19T06:30:05;8.65;;;6.63;;
42846;SDS011;28495;49.916;14.536;2022-08-19T06:35:26;10.00;;;6.57;;
42846;SDS011;28495;49.916;14.536;2022-08-19T06:40:47;9.07;;;6.63;;
42846;SDS011;28495;49.916;14.536;2022-08-19T06:46:11;6.80;;;6.00;;
42846;SDS011;28495;49.916;14.536;2022-08-19T06:51:34;10.82;;;8.63;;
42846;SDS011;28495;49.916;14.536;2022-08-19T06:57:02;13.00;;;8.88;;
42846;SDS011;28495;49.916;14.536;2022-08-19T07:02:24;8.07;;;7.20;;
42846;SDS011;28495;49.916;14.536;2022-08-19T07:07:46;11.05;;;9.38;;
42846;SDS011;28495;49.916;14.536;2022-08-19T07:13:10;10.13;;;8.38;;
42846;SDS011;28495;49.916;14.536;2022-08-19T07:18:31;9.45;;;7.97;;
42846;SDS011;28495;49.916;14.536;2022-08-19T07:23:55;11.95;;;8.93;;
42846;SDS011;28495;49.916;14.536;2022-08-19T07:29:17;10.43;;;8.23;;
42846;SDS011;28495;49.916;14.536;2022-08-19T07:34:43;9.52;;;8.32;;
42846;SDS011;28495;49.916;14.536;2022-08-19T07:40:06;9.70;;;7.57;;
42846;SDS011;28495;49.916;14.536;2022-08-19T07:45:27;9.07;;;7.63;;
42846;SDS011;28495;49.916;14.536;2022-08-19T07:50:48;14.32;;;8.38;;
42846;SDS011;28495;49.916;14.536;2022-08-19T07:56:09;11.25;;;7.93;;
42846;SDS011;28495;49.916;14.536;2022-08-19T08:01:31;13.85;;;9.55;;
42846;SDS011;28495;49.916;14.536;2022-08-19T08:07:01;10.07;;;8.48;;
42846;SDS011;28495;49.916;14.536;2022-08-19T08:12:42;11.15;;;8.25;;
42846;SDS011;28495;49.916;14.536;2022-08-19T08:18:20;12.55;;;7.53;;
42846;SDS011;28495;49.916;14.536;2022-08-19T08:23:46;11.95;;;8.68;;
42846;SDS011;28495;49.916;14.536;2022-08-19T08:29:07;9.27;;;7.68;;
42846;SDS011;28495;49.916;14.536;2022-08-19T08:34:32;9.88;;;7.78;;
42846;SDS011;28495;49.916;14.536;2022-08-19T08:39:52;8.60;;;7.30;;
42846;SDS011;28495;49.916;14.536;2022-08-19T08:45:15;10.63;;;8.75;;
42846;SDS011;28495;49.916;14.536;2022-08-19T08:50:41;8.85;;;7.65;;
42846;SDS011;28495;49.916;14.536;2022-08-19T08:56:08;11.07;;;8.20;;
42846;SDS011;28495;49.916;14.536;2022-08-19T09:01:32;10.15;;;8.48;;
42846;SDS011;28495;49.916;14.536;2022-08-19T09:18:50;9.63;;;7.97;;
42846;SDS011;28495;49.916;14.536;2022-08-19T09:24:14;15.23;;;9.00;;
42846;SDS011;28495;49.916;14.536;2022-08-19T09:29:35;12.30;;;8.70;;
42846;SDS011;28495;49.916;14.536;2022-08-19T09:34:55;9.20;;;7.78;;
42846;SDS011;28495;49.916;14.536;2022-08-19T09:40:18;9.45;;;7.70;;
42846;SDS011;28495;49.916;14.536;2022-08-19T09:45:44;11.00;;;8.45;;
42846;SDS011;28495;49.916;14.536;2022-08-19T09:51:06;11.73;;;8.57;;
42846;SDS011;28495;49.916;14.536;2022-08-19T09:56:31;11.93;;;9.38;;
42846;SDS011;28495;49.916;14.536;2022-08-19T10:01:53;10.00;;;7.22;;
42846;SDS011;28495;49.916;14.536;2022-08-19T10:07:23;10.27;;;9.07;;
42846;SDS011;28495;49.916;14.536;2022-08-19T10:12:55;11.20;;;7.25;;
42846;SDS011;28495;49.916;14.536;2022-08-19T10:18:16;10.75;;;8.75;;
42846;SDS011;28495;49.916;14.536;2022-08-19T10:23:40;10.32;;;8.30;;
42846;SDS011;28495;49.916;14.536;2022-08-19T10:29:05;11.73;;;8.00;;
42846;SDS011;28495;49.916;14.536;2022-08-19T10:34:29;11.85;;;8.30;;
42846;SDS011;28495;49.916;14.536;2022-08-19T10:39:51;8.25;;;6.57;;
42846;SDS011;28495;49.916;14.536;2022-08-19T10:45:11;10.52;;;7.82;;
42846;SDS011;28495;49.916;14.536;2022-08-19T10:50:32;9.43;;;7.63;;
42846;SDS011;28495;49.916;14.536;2022-08-19T11:01:51;8.30;;;6.72;;
42846;SDS011;28495;49.916;14.536;2022-08-19T11:07:14;11.38;;;7.57;;
42846;SDS011;28495;49.916;14.536;2022-08-19T11:12:36;8.18;;;7.10;;
42846;SDS011;28495;49.916;14.536;2022-08-19T11:17:59;11.73;;;6.20;;
42846;SDS011;28495;49.916;14.536;2022-08-19T11:23:20;13.07;;;7.10;;
42846;SDS011;28495;49.916;14.536;2022-08-19T11:28:41;7.82;;;6.80;;
42846;SDS011;28495;49.916;14.536;2022-08-19T11:34:03;8.30;;;7.38;;
42846;SDS011;28495;49.916;14.536;2022-08-19T11:39:28;7.68;;;6.85;;
42846;SDS011;28495;49.916;14.536;2022-08-19T11:44:50;8.95;;;6.40;;
42846;SDS011;28495;49.916;14.536;2022-08-19T11:50:12;9.27;;;6.82;;
42846;SDS011;28495;49.916;14.536;2022-08-19T11:55:36;10.40;;;6.70;;
42846;SDS011;28495;49.916;14.536;2022-08-19T12:01:11;6.45;;;5.43;;
42846;SDS011;28495;49.916;14.536;2022-08-19T12:06:34;7.80;;;5.88;;
42846;SDS011;28495;49.916;14.536;2022-08-19T12:11:58;7.38;;;5.57;;
42846;SDS011;28495;49.916;14.536;2022-08-19T12:17:19;6.07;;;5.13;;
42846;SDS011;28495;49.916;14.536;2022-08-19T12:22:40;6.88;;;6.03;;
42846;SDS011;28495;49.916;14.536;2022-08-19T12:28:01;9.23;;;6.55;;
42846;SDS011;28495;49.916;14.536;2022-08-19T12:33:24;7.20;;;6.15;;
42846;SDS011;28495;49.916;14.536;2022-08-19T12:38:47;6.53;;;5.80;;
42846;SDS011;28495;49.916;14.536;2022-08-19T12:44:08;5.85;;;5.25;;
42846;SDS011;28495;49.916;14.536;2022-08-19T12:49:30;7.28;;;6.15;;
42846;SDS011;28495;49.916;14.536;2022-08-19T12:55:14;6.38;;;5.72;;
42846;SDS011;28495;49.916;14.536;2022-08-19T13:00:35;7.10;;;5.05;;
42846;SDS011;28495;49.916;14.536;2022-08-19T13:05:55;7.50;;;5.40;;
42846;SDS011;28495;49.916;14.536;2022-08-19T13:11:18;4.97;;;4.45;;
42846;SDS011;28495;49.916;14.536;2022-08-19T13:16:40;6.80;;;5.47;;
42846;SDS011;28495;49.916;14.536;2022-08-19T13:22:01;7.63;;;4.82;;
42846;SDS011;28495;49.916;14.536;2022-08-19T13:27:22;5.68;;;4.60;;
42846;SDS011;28495;49.916;14.536;2022-08-19T13:32:42;5.68;;;4.80;;
42846;SDS011;28495;49.916;14.536;2022-08-19T13:38:22;4.93;;;4.40;;
42846;SDS011;28495;49.916;14.536;2022-08-19T13:43:44;5.40;;;4.45;;
42846;SDS011;28495;49.916;14.536;2022-08-19T13:49:04;7.15;;;5.45;;
42846;SDS011;28495;49.916;14.536;2022-08-19T13:54:25;6.55;;;5.07;;
42846;SDS011;28495;49.916;14.536;2022-08-19T13:59:47;8.13;;;4.95;;
42846;SDS011;28495;49.916;14.536;2022-08-19T14:05:09;8.48;;;4.53;;
42846;SDS011;28495;49.916;14.536;2022-08-19T14:10:31;5.20;;;4.15;;
42846;SDS011;28495;49.916;14.536;2022-08-19T14:15:52;6.25;;;5.30;;
42846;SDS011;28495;49.916;14.536;2022-08-19T14:21:14;7.28;;;6.03;;
42846;SDS011;28495;49.916;14.536;2022-08-19T14:26:37;7.78;;;5.40;;
42846;SDS011;28495;49.916;14.536;2022-08-19T14:31:58;5.05;;;4.55;;
42846;SDS011;28495;49.916;14.536;2022-08-19T14:37:19;9.82;;;5.35;;
42846;SDS011;28495;49.916;14.536;2022-08-19T14:42:44;7.80;;;5.20;;
42846;SDS011;28495;49.916;14.536;2022-08-19T14:48:05;9.27;;;5.47;;
42846;SDS011;28495;49.916;14.536;2022-08-19T14:53:39;6.60;;;4.88;;
42846;SDS011;28495;49.916;14.536;2022-08-19T14:59:00;6.20;;;4.70;;
42846;SDS011;28495;49.916;14.536;2022-08-19T15:04:21;6.18;;;4.80;;
42846;SDS011;28495;49.916;14.536;2022-08-19T15:09:41;5.85;;;4.25;;
42846;SDS011;28495;49.916;14.536;2022-08-19T15:15:02;9.25;;;4.97;;
42846;SDS011;28495;49.916;14.536;2022-08-19T15:20:24;5.70;;;5.00;;
42846;SDS011;28495;49.916;14.536;2022-08-19T15:25:45;7.55;;;5.70;;
42846;SDS011;28495;49.916;14.536;2022-08-19T15:31:06;6.90;;;5.25;;
42846;SDS011;28495;49.916;14.536;2022-08-19T15:36:27;7.70;;;5.57;;
42846;SDS011;28495;49.916;14.536;2022-08-19T15:41:47;12.48;;;7.43;;
42846;SDS011;28495;49.916;14.536;2022-08-19T15:47:10;8.18;;;6.57;;
42846;SDS011;28495;49.916;14.536;2022-08-19T15:52:31;11.40;;;6.00;;
42846;SDS011;28495;49.916;14.536;2022-08-19T15:57:52;10.07;;;6.72;;
42846;SDS011;28495;49.916;14.536;2022-08-19T16:03:49;11.13;;;7.55;;
42846;SDS011;28495;49.916;14.536;2022-08-19T16:09:34;8.68;;;7.00;;
42846;SDS011;28495;49.916;14.536;2022-08-19T16:14:56;10.70;;;7.50;;
42846;SDS011;28495;49.916;14.536;2022-08-19T16:20:17;11.65;;;8.00;;
42846;SDS011;28495;49.916;14.536;2022-08-19T16:25:43;9.35;;;8.20;;
42846;SDS011;28495;49.916;14.536;2022-08-19T16:31:04;11.68;;;7.40;;
42846;SDS011;28495;49.916;14.536;2022-08-19T16:36:25;9.75;;;7.85;;
42846;SDS011;28495;49.916;14.536;2022-08-19T16:41:48;8.25;;;6.13;;
42846;SDS011;28495;49.916;14.536;2022-08-19T16:47:11;11.70;;;7.70;;
42846;SDS011;28495;49.916;14.536;2022-08-19T16:52:33;9.50;;;6.70;;
42846;SDS011;28495;49.916;14.536;2022-08-19T16:57:55;8.65;;;7.03;;
42846;SDS011;28495;49.916;14.536;2022-08-19T17:03:17;10.45;;;7.85;;
42846;SDS011;28495;49.916;14.536;2022-08-19T17:08:56;17.33;;;10.00;;
42846;SDS011;28495;49.916;14.536;2022-08-19T17:14:19;8.50;;;7.40;;
42846;SDS011;28495;49.916;14.536;2022-08-19T17:19:41;10.85;;;7.85;;
42846;SDS011;28495;49.916;14.536;2022-08-19T17:25:02;8.35;;;7.05;;
42846;SDS011;28495;49.916;14.536;2022-08-19T17:30:25;7.97;;;6.85;;
42846;SDS011;28495;49.916;14.536;2022-08-19T17:35:45;9.60;;;8.13;;
42846;SDS011;28495;49.916;14.536;2022-08-19T17:41:07;9.48;;;6.20;;
42846;SDS011;28495;49.916;14.536;2022-08-19T17:46:30;9.15;;;7.32;;
42846;SDS011;28495;49.916;14.536;2022-08-19T17:51:53;9.27;;;6.43;;
42846;SDS011;28495;49.916;14.536;2022-08-19T17:57:14;10.48;;;6.95;;
42846;SDS011;28495;49.916;14.536;2022-08-19T18:02:42;8.45;;;7.43;;
42846;SDS011;28495;49.916;14.536;2022-08-19T18:08:04;7.90;;;5.45;;
42846;SDS011;28495;49.916;14.536;2022-08-19T18:13:28;15.88;;;5.72;;
42846;SDS011;28495;49.916;14.536;2022-08-19T18:18:49;8.85;;;5.97;;
42846;SDS011;28495;49.916;14.536;2022-08-19T18:24:14;7.50;;;5.40;;
42846;SDS011;28495;49.916;14.536;2022-08-19T18:29:35;7.45;;;6.22;;
42846;SDS011;28495;49.916;14.536;2022-08-19T18:34:58;7.63;;;6.22;;
42846;SDS011;28495;49.916;14.536;2022-08-19T18:40:20;9.60;;;6.45;;
42846;SDS011;28495;49.916;14.536;2022-08-19T18:46:00;7.05;;;4.85;;
42846;SDS011;28495;49.916;14.536;2022-08-19T18:51:39;11.20;;;6.63;;
42846;SDS011;28495;49.916;14.536;2022-08-19T18:57:00;5.63;;;2.58;;
42846;SDS011;28495;49.916;14.536;2022-08-19T19:09:12;2.83;;;1.20;;
42846;SDS011;28495;49.916;14.536;2022-08-19T19:14:38;3.85;;;1.35;;
42846;SDS011;28495;49.916;14.536;2022-08-19T19:20:09;4.72;;;0.85;;
42846;SDS011;28495;49.916;14.536;2022-08-19T19:25:30;3.60;;;1.30;;
42846;SDS011;28495;49.916;14.536;2022-08-19T19:31:11;2.22;;;1.10;;
42846;SDS011;28495;49.916;14.536;2022-08-19T19:36:37;2.10;;;1.35;;
42846;SDS011;28495;49.916;14.536;2022-08-19T19:41:59;5.03;;;1.98;;
42846;SDS011;28495;49.916;14.536;2022-08-19T19:47:20;5.57;;;1.60;;
42846;SDS011;28495;49.916;14.536;2022-08-19T19:52:44;5.35;;;1.42;;
42846;SDS011;28495;49.916;14.536;2022-08-19T19:58:06;3.53;;;0.93;;
42846;SDS011;28495;49.916;14.536;2022-08-19T20:03:27;3.13;;;1.02;;
42846;SDS011;28495;49.916;14.536;2022-08-19T20:08:49;1.15;;;0.93;;
42846;SDS011;28495;49.916;14.536;2022-08-19T20:14:30;3.97;;;1.30;;
42846;SDS011;28495;49.916;14.536;2022-08-19T20:19:51;1.70;;;1.15;;
42846;SDS011;28495;49.916;14.536;2022-08-19T20:25:13;1.55;;;1.20;;
42846;SDS011;28495;49.916;14.536;2022-08-19T20:30:36;1.73;;;1.00;;
42846;SDS011;28495;49.916;14.536;2022-08-19T20:41:26;2.28;;;1.00;;
42846;SDS011;28495;49.916;14.536;2022-08-19T20:46:47;1.20;;;0.90;;
42846;SDS011;28495;49.916;14.536;2022-08-19T20:52:14;3.60;;;1.00;;
42846;SDS011;28495;49.916;14.536;2022-08-19T20:57:35;3.25;;;1.63;;
42846;SDS011;28495;49.916;14.536;2022-08-19T21:02:56;2.95;;;1.55;;
42846;SDS011;28495;49.916;14.536;2022-08-19T21:08:16;4.60;;;2.10;;
42846;SDS011;28495;49.916;14.536;2022-08-19T21:13:37;2.55;;;1.60;;
42846;SDS011;28495;49.916;14.536;2022-08-19T21:19:00;3.42;;;1.48;;
42846;SDS011;28495;49.916;14.536;2022-08-19T21:24:21;2.30;;;1.85;;
42846;SDS011;28495;49.916;14.536;2022-08-19T21:29:50;5.00;;;2.13;;
42846;SDS011;28495;49.916;14.536;2022-08-19T21:35:12;5.05;;;3.20;;
42846;SDS011;28495;49.916;14.536;2022-08-19T21:40:32;5.25;;;3.90;;
42846;SDS011;28495;49.916;14.536;2022-08-19T21:45:54;3.38;;;3.08;;
42846;SDS011;28495;49.916;14.536;2022-08-19T21:51:15;5.35;;;4.25;;
42846;SDS011;28495;49.916;14.536;2022-08-19T21:56:36;4.80;;;3.58;;
42846;SDS011;28495;49.916;14.536;2022-08-19T22:01:59;7.57;;;4.68;;
42846;SDS011;28495;49.916;14.536;2022-08-19T22:07:38;7.30;;;4.60;;
42846;SDS011;28495;49.916;14.536;2022-08-19T22:13:02;7.75;;;4.68;;
42846;SDS011;28495;49.916;14.536;2022-08-19T22:18:24;4.30;;;3.40;;
42846;SDS011;28495;49.916;14.536;2022-08-19T22:23:47;11.93;;;7.03;;
42846;SDS011;28495;49.916;14.536;2022-08-19T22:29:08;8.55;;;4.68;;
42846;SDS011;28495;49.916;14.536;2022-08-19T22:34:34;11.02;;;6.25;;
42846;SDS011;28495;49.916;14.536;2022-08-19T22:39:55;11.93;;;7.95;;
42846;SDS011;28495;49.916;14.536;2022-08-19T22:45:16;14.20;;;9.02;;
42846;SDS011;28495;49.916;14.536;2022-08-19T22:50:39;11.30;;;8.52;;
42846;SDS011;28495;49.916;14.536;2022-08-19T22:56:03;12.80;;;8.90;;
42846;SDS011;28495;49.916;14.536;2022-08-19T23:01:25;12.57;;;9.32;;
42846;SDS011;28495;49.916;14.536;2022-08-19T23:06:50;14.05;;;9.80;;
42846;SDS011;28495;49.916;14.536;2022-08-19T23:12:12;13.27;;;9.32;;
42846;SDS011;28495;49.916;14.536;2022-08-19T23:17:34;17.27;;;10.93;;
42846;SDS011;28495;49.916;14.536;2022-08-19T23:22:55;17.05;;;10.93;;
42846;SDS011;28495;49.916;14.536;2022-08-19T23:28:16;15.95;;;11.88;;
42846;SDS011;28495;49.916;14.536;2022-08-19T23:33:56;17.63;;;12.20;;
42846;SDS011;28495;49.916;14.536;2022-08-19T23:39:17;18.15;;;13.63;;
42846;SDS011;28495;49.916;14.536;2022-08-19T23:44:39;17.90;;;12.45;;
42846;SDS011;28495;49.916;14.536;2022-08-19T23:50:12;22.08;;;14.13;;
42846;SDS011;28495;49.916;14.536;2022-08-19T23:55:35;19.42;;;13.77;;
